Time;durP1;ratioP1;P1;durP2;ratioP2;P2;SDS_P1;SDS_P2;PMS_P1;PMS_P2;Temp;Humidity;BMP_temperature;BMP_pressure;BME280_temperature;BME280_humidity;BME280_pressure;Samples;Min_cycle;Max_cycle;Signal;HPM_P1;HPM_P2
2023/10/01 00:00:18;;;;;;;11.77;5.38;;;15.20;99.90;;;;;;5052695;28;20057;-78
2023/10/01 00:02:55;;;;;;;12.82;4.88;;;15.20;99.90;;;;;;5053095;28;20488;-78
2023/10/01 00:05:24;;;;;;;12.13;5.50;;;15.20;99.90;;;;;;5055192;28;20117;-78
2023/10/01 00:07:54;;;;;;;14.10;6.10;;;15.20;99.90;;;;;;5053015;28;20049;-80
2023/10/01 00:10:21;;;;;;;20.50;6.97;;;15.20;99.90;;;;;;5053234;28;20040;-79
2023/10/01 00:12:52;;;;;;;16.55;6.30;;;15.10;99.90;;;;;;5054096;28;20428;-80
2023/10/01 00:15:21;;;;;;;14.70;6.45;;;15.20;99.90;;;;;;5053475;28;20080;-78
2023/10/01 00:17:49;;;;;;;13.82;6.05;;;15.10;99.90;;;;;;5053235;28;20045;-79
2023/10/01 00:20:29;;;;;;;21.17;7.72;;;15.10;99.90;;;;;;5048339;28;20046;-78
2023/10/01 00:23:01;;;;;;;16.65;7.60;;;15.10;99.90;;;;;;5049852;28;20186;-78
2023/10/01 00:25:27;;;;;;;18.80;8.45;;;15.00;99.90;;;;;;5045812;28;20086;-80
2023/10/01 00:27:55;;;;;;;14.38;6.60;;;15.00;99.90;;;;;;5050268;28;20650;-78
2023/10/01 00:30:21;;;;;;;20.05;8.25;;;15.00;99.90;;;;;;5041219;28;20083;-80
2023/10/01 00:32:48;;;;;;;12.40;7.05;;;14.90;99.90;;;;;;5053416;28;20052;-78
2023/10/01 00:35:14;;;;;;;13.57;6.60;;;14.90;99.90;;;;;;5052764;28;20060;-81
2023/10/01 00:37:40;;;;;;;16.52;7.55;;;14.90;99.90;;;;;;5047395;28;20037;-79
2023/10/01 00:40:08;;;;;;;11.40;5.68;;;14.90;99.90;;;;;;5036762;28;20040;-78
2023/10/01 00:42:35;;;;;;;16.13;7.32;;;14.90;99.90;;;;;;5048082;28;20048;-79
2023/10/01 00:45:11;;;;;;;19.20;9.25;;;14.90;99.90;;;;;;5042197;28;20052;-78
2023/10/01 00:47:45;;;;;;;18.27;7.68;;;14.90;99.90;;;;;;5038736;28;20076;-79
2023/10/01 00:50:21;;;;;;;20.83;9.07;;;14.80;99.90;;;;;;5041980;28;20128;-78
2023/10/01 00:52:49;;;;;;;14.10;8.02;;;14.80;99.90;;;;;;5050883;28;20052;-78
2023/10/01 00:55:17;;;;;;;18.52;8.88;;;14.80;99.90;;;;;;5043370;28;20064;-79
2023/10/01 00:57:43;;;;;;;16.95;8.82;;;14.80;99.90;;;;;;5042867;28;20484;-78
2023/10/01 01:00:13;;;;;;;16.38;9.07;;;14.80;99.90;;;;;;5043756;28;20504;-79
2023/10/01 01:02:56;;;;;;;19.13;9.02;;;14.80;99.90;;;;;;5033505;28;20555;-78
2023/10/01 01:05:35;;;;;;;15.77;8.10;;;14.80;99.90;;;;;;5037777;28;20060;-78
2023/10/01 01:08:21;;;;;;;20.98;10.38;;;14.80;99.90;;;;;;5027332;28;20041;-79
2023/10/01 01:10:50;;;;;;;24.38;10.73;;;14.80;99.90;;;;;;5043509;28;20049;-78
2023/10/01 01:13:16;;;;;;;14.10;8.50;;;14.80;99.90;;;;;;5051715;28;20037;-79
2023/10/01 01:15:45;;;;;;;17.70;8.77;;;14.70;99.90;;;;;;5052217;28;20045;-79
2023/10/01 01:18:21;;;;;;;16.85;8.70;;;14.70;99.90;;;;;;5042698;28;20053;-79
2023/10/01 01:20:49;;;;;;;15.60;9.48;;;14.70;99.90;;;;;;5034786;28;20056;-78
2023/10/01 01:23:19;;;;;;;16.30;9.98;;;14.70;99.90;;;;;;5040879;28;20049;-78
2023/10/01 01:25:46;;;;;;;13.60;6.47;;;14.70;99.90;;;;;;5051919;28;20058;-79
2023/10/01 01:28:15;;;;;;;15.20;8.15;;;14.70;99.90;;;;;;5050247;28;20071;-80
2023/10/01 01:30:47;;;;;;;21.63;9.63;;;14.60;99.90;;;;;;5034773;28;20097;-79
2023/10/01 01:33:13;;;;;;;16.77;9.10;;;14.60;99.90;;;;;;5043364;28;20052;-79
2023/10/01 01:35:43;;;;;;;18.77;10.10;;;14.60;99.90;;;;;;5034521;28;20045;-80
2023/10/01 01:38:09;;;;;;;19.02;10.90;;;14.60;99.90;;;;;;5042751;28;20049;-80
2023/10/01 01:40:40;;;;;;;23.63;11.07;;;14.60;99.90;;;;;;5039233;28;20076;-78
2023/10/01 01:43:15;;;;;;;18.02;11.18;;;14.60;99.90;;;;;;5046594;28;20049;-80
2023/10/01 01:45:44;;;;;;;18.05;10.27;;;14.60;99.90;;;;;;5049457;28;20041;-78
2023/10/01 01:48:30;;;;;;;13.32;7.38;;;14.60;99.90;;;;;;5045799;28;20041;-80
2023/10/01 01:51:03;;;;;;;20.00;10.77;;;14.50;99.90;;;;;;5045973;28;20051;-80
2023/10/01 01:53:34;;;;;;;22.05;11.15;;;14.60;99.90;;;;;;5039274;28;20053;-80
2023/10/01 01:56:16;;;;;;;19.05;10.70;;;14.50;99.90;;;;;;5032845;28;20084;-79
2023/10/01 01:58:43;;;;;;;24.48;11.13;;;14.50;99.90;;;;;;5029517;28;20053;-79
2023/10/01 02:03:44;;;;;;;20.52;10.65;;;14.50;99.90;;;;;;5046830;28;22159;-80
2023/10/01 02:06:10;;;;;;;19.67;10.35;;;14.50;99.90;;;;;;5047488;28;20048;-80
2023/10/01 02:08:49;;;;;;;18.73;11.27;;;14.50;99.90;;;;;;5046905;28;20041;-80
2023/10/01 02:11:19;;;;;;;18.60;11.07;;;14.50;99.90;;;;;;5041837;28;20045;-79
2023/10/01 02:13:46;;;;;;;20.25;11.38;;;14.50;99.90;;;;;;5049037;28;20057;-77
2023/10/01 02:22:00;;;;;;;21.17;11.68;;;14.50;99.90;;;;;;5045374;28;20049;-79
2023/10/01 02:25:11;;;;;;;18.30;9.95;;;14.50;99.90;;;;;;5043035;28;20049;-79
2023/10/01 02:27:18;;;;;;;18.98;11.00;;;14.50;99.90;;;;;;5034727;28;20081;-79
2023/10/01 02:30:12;;;;;;;19.95;11.45;;;14.50;99.90;;;;;;5036419;28;20116;-78
2023/10/01 02:32:38;;;;;;;27.75;12.75;;;14.50;99.90;;;;;;5046232;28;20045;-78
2023/10/01 02:35:34;;;;;;;21.70;12.00;;;14.50;99.90;;;;;;5042351;28;20128;-80
2023/10/01 02:37:54;;;;;;;16.77;10.38;;;14.50;99.90;;;;;;5025063;28;20049;-79
2023/10/01 02:40:20;;;;;;;16.98;10.38;;;14.50;99.90;;;;;;5039474;28;20053;-79
2023/10/01 02:42:49;;;;;;;16.98;9.75;;;14.50;99.90;;;;;;5023493;28;20386;-80
2023/10/01 02:45:32;;;;;;;19.98;11.73;;;14.60;99.90;;;;;;5036531;28;20061;-79
2023/10/01 02:48:13;;;;;;;21.73;11.32;;;14.50;99.90;;;;;;5037976;28;20110;-78
2023/10/01 02:50:48;;;;;;;19.35;11.27;;;14.60;99.90;;;;;;5053287;28;20048;-80
2023/10/01 02:53:14;;;;;;;21.00;10.77;;;14.50;99.90;;;;;;5043561;28;20061;-80
2023/10/01 02:55:45;;;;;;;16.92;11.10;;;14.50;99.90;;;;;;5037016;28;20098;-79
2023/10/01 02:58:27;;;;;;;18.80;10.85;;;14.50;99.90;;;;;;5025263;28;20527;-80
2023/10/01 03:00:53;;;;;;;20.58;12.05;;;14.50;99.90;;;;;;5044103;28;20072;-80
2023/10/01 03:03:31;;;;;;;20.60;11.70;;;14.50;99.90;;;;;;5037478;28;20053;-79
2023/10/01 03:05:57;;;;;;;18.25;11.93;;;14.60;99.90;;;;;;5035301;28;20041;-79
2023/10/01 03:08:41;;;;;;;22.55;10.52;;;14.50;99.90;;;;;;5034501;28;20055;-79
2023/10/01 03:11:09;;;;;;;22.33;13.20;;;14.60;99.90;;;;;;5036834;28;20056;-79
2023/10/01 03:13:48;;;;;;;21.38;10.57;;;14.60;99.90;;;;;;5055822;28;20059;-79
2023/10/01 03:19:04;;;;;;;21.33;11.95;;;14.60;99.90;;;;;;5055099;28;20064;-80
2023/10/01 03:24:14;;;;;;;19.53;10.73;;;14.60;99.90;;;;;;5054550;28;20511;-79
2023/10/01 03:26:44;;;;;;;21.45;12.90;;;14.60;99.90;;;;;;5054316;28;20287;-79
2023/10/01 03:29:34;;;;;;;22.20;11.60;;;14.60;99.90;;;;;;5036594;28;20068;-80
2023/10/01 03:34:52;;;;;;;20.80;11.57;;;14.60;99.90;;;;;;5054873;28;20049;-78
2023/10/01 03:37:27;;;;;;;21.92;11.57;;;14.60;99.90;;;;;;5055470;28;20049;-80
2023/10/01 03:40:03;;;;;;;23.08;11.48;;;14.60;99.90;;;;;;5038243;28;20130;-81
2023/10/01 03:42:33;;;;;;;18.45;12.80;;;14.60;99.90;;;;;;5045236;28;20048;-80
2023/10/01 03:47:58;;;;;;;16.92;10.73;;;14.60;99.90;;;;;;5052059;28;20144;-79
2023/10/01 03:50:31;;;;;;;24.02;12.77;;;14.60;99.90;;;;;;5043499;28;20425;-80
2023/10/01 03:52:59;;;;;;;21.58;12.38;;;14.60;99.90;;;;;;5049107;28;20132;-78
2023/10/01 03:55:27;;;;;;;20.90;11.52;;;14.60;99.90;;;;;;5047096;28;20045;-79
2023/10/01 03:58:06;;;;;;;21.30;12.43;;;14.60;99.90;;;;;;5039516;28;20081;-81
2023/10/01 04:00:52;;;;;;;20.60;11.68;;;14.60;99.90;;;;;;5044480;28;20429;-80
2023/10/01 04:03:21;;;;;;;17.20;10.65;;;14.60;99.90;;;;;;5043274;28;20106;-80
2023/10/01 04:05:47;;;;;;;17.23;10.82;;;14.60;99.90;;;;;;5043028;28;20492;-79
2023/10/01 04:08:14;;;;;;;21.85;12.00;;;14.60;99.90;;;;;;5050751;28;20037;-80
2023/10/01 04:10:41;;;;;;;20.95;11.45;;;14.60;99.90;;;;;;5049819;28;20045;-79
2023/10/01 04:13:20;;;;;;;18.80;10.68;;;14.60;99.90;;;;;;5037273;28;20055;-79
2023/10/01 04:15:55;;;;;;;16.98;10.18;;;14.60;99.90;;;;;;5045080;28;20136;-80
2023/10/01 04:18:24;;;;;;;17.55;9.95;;;14.60;99.90;;;;;;5048518;28;20060;-78
2023/10/01 04:23:32;;;;;;;16.55;10.57;;;14.60;99.90;;;;;;5041102;28;20049;-79
2023/10/01 04:26:06;;;;;;;15.48;10.07;;;14.70;99.90;;;;;;5040399;28;20485;-79
2023/10/01 04:28:36;;;;;;;13.05;7.65;;;14.60;99.90;;;;;;5043553;28;20046;-79
2023/10/01 04:31:09;;;;;;;18.33;10.98;;;14.60;99.90;;;;;;5048624;28;20079;-78
2023/10/01 04:33:42;;;;;;;15.98;9.80;;;14.60;99.90;;;;;;5052206;28;20076;-80
2023/10/01 04:36:11;;;;;;;14.75;9.35;;;14.60;99.90;;;;;;5045401;28;20140;-79
2023/10/01 04:38:41;;;;;;;24.20;11.43;;;14.60;99.90;;;;;;5047589;28;20047;-78
2023/10/01 04:41:18;;;;;;;16.90;9.27;;;14.70;99.90;;;;;;5040895;28;20103;-78
2023/10/01 04:46:30;;;;;;;17.77;10.52;;;14.70;99.90;;;;;;5048666;28;20052;-78
2023/10/01 04:48:56;;;;;;;17.75;10.35;;;14.70;99.90;;;;;;5041832;28;20050;-80
2023/10/01 04:51:22;;;;;;;16.13;10.30;;;14.70;99.90;;;;;;5045393;28;20047;-80
2023/10/01 04:53:52;;;;;;;18.42;10.38;;;14.70;99.90;;;;;;5039430;28;20066;-80
2023/10/01 04:56:20;;;;;;;16.38;9.20;;;14.70;99.90;;;;;;5034723;28;20057;-79
2023/10/01 04:58:54;;;;;;;17.25;10.02;;;14.70;99.90;;;;;;5042304;28;20053;-79
2023/10/01 05:01:28;;;;;;;17.53;9.37;;;14.70;99.90;;;;;;5042400;28;20048;-80
2023/10/01 05:03:56;;;;;;;19.15;10.38;;;14.70;99.90;;;;;;5047107;28;20311;-80
2023/10/01 05:06:23;;;;;;;14.20;7.85;;;14.70;99.90;;;;;;5040858;28;20053;-79
2023/10/01 05:08:53;;;;;;;16.55;9.13;;;14.70;99.90;;;;;;5049388;28;20041;-80
2023/10/01 05:11:21;;;;;;;18.63;10.82;;;14.70;99.90;;;;;;5045489;28;20045;-79
2023/10/01 05:13:51;;;;;;;16.95;9.23;;;14.70;99.90;;;;;;5030204;28;20045;-78
2023/10/01 05:16:20;;;;;;;14.88;8.98;;;14.70;99.90;;;;;;5051302;28;20099;-78
2023/10/01 05:18:46;;;;;;;18.05;10.18;;;14.70;99.90;;;;;;5051566;28;20075;-80
2023/10/01 05:21:12;;;;;;;18.10;10.00;;;14.70;99.90;;;;;;5041687;28;20454;-78
2023/10/01 05:23:43;;;;;;;19.92;9.38;;;14.70;99.90;;;;;;5039089;28;20117;-79
2023/10/01 05:26:10;;;;;;;19.80;10.23;;;14.70;99.90;;;;;;5043340;28;20052;-79
2023/10/01 05:28:41;;;;;;;19.13;10.23;;;14.70;99.90;;;;;;5042733;28;20052;-77
2023/10/01 05:31:09;;;;;;;12.80;6.90;;;14.70;99.90;;;;;;5046777;28;20037;-79
2023/10/01 05:33:35;;;;;;;14.45;9.20;;;14.70;99.90;;;;;;5048260;28;20654;-80
2023/10/01 05:36:05;;;;;;;17.98;9.35;;;14.70;99.90;;;;;;5044931;28;20052;-79
2023/10/01 05:38:34;;;;;;;16.75;9.10;;;14.60;99.90;;;;;;5047394;28;20049;-79
2023/10/01 05:41:09;;;;;;;18.02;9.95;;;14.60;99.90;;;;;;5051472;28;20041;-80
2023/10/01 05:43:43;;;;;;;19.35;9.20;;;14.60;99.90;;;;;;5045944;28;20045;-80
2023/10/01 05:46:12;;;;;;;17.77;9.70;;;14.60;99.90;;;;;;5043449;28;20052;-79
2023/10/01 05:48:43;;;;;;;18.67;9.77;;;14.60;99.90;;;;;;5042411;28;20041;-78
2023/10/01 05:51:18;;;;;;;15.10;9.15;;;14.60;99.90;;;;;;5050785;28;20049;-80
2023/10/01 05:53:44;;;;;;;17.58;8.77;;;14.60;99.90;;;;;;5052247;28;20508;-79
2023/10/01 05:56:15;;;;;;;18.75;10.27;;;14.50;99.90;;;;;;5048268;28;20163;-79
2023/10/01 05:58:42;;;;;;;17.40;9.93;;;14.50;99.90;;;;;;5036517;28;20052;-79
2023/10/01 06:01:16;;;;;;;17.38;9.40;;;14.50;99.90;;;;;;5049793;28;20037;-78
2023/10/01 06:03:49;;;;;;;16.95;10.00;;;14.50;99.90;;;;;;5048514;28;20041;-79
2023/10/01 06:06:24;;;;;;;19.35;10.93;;;14.50;99.90;;;;;;5042935;28;20048;-78
2023/10/01 06:08:59;;;;;;;19.48;11.10;;;14.50;99.90;;;;;;5039497;28;20089;-79
2023/10/01 06:11:38;;;;;;;22.00;11.48;;;14.50;99.90;;;;;;5043909;28;20075;-79
2023/10/01 06:14:08;;;;;;;18.85;10.02;;;14.50;99.90;;;;;;5043577;28;20143;-79
2023/10/01 06:16:39;;;;;;;16.92;10.57;;;14.50;99.90;;;;;;5042156;28;20059;-80
2023/10/01 06:19:11;;;;;;;18.45;10.45;;;14.50;99.90;;;;;;5044888;28;20218;-78
2023/10/01 06:21:39;;;;;;;21.45;11.27;;;14.50;99.90;;;;;;5040189;28;20115;-80
2023/10/01 06:24:10;;;;;;;19.98;9.43;;;14.50;99.90;;;;;;5049317;28;20465;-80
2023/10/01 06:26:50;;;;;;;17.80;10.77;;;14.50;99.90;;;;;;5044298;28;20049;-81
2023/10/01 06:29:16;;;;;;;18.23;9.75;;;14.50;99.90;;;;;;5034188;28;20056;-79
2023/10/01 06:32:00;;;;;;;17.10;9.80;;;14.50;99.90;;;;;;5044915;28;20041;-79
2023/10/01 06:34:31;;;;;;;22.05;10.55;;;14.50;99.90;;;;;;5042229;28;20538;-79
2023/10/01 06:36:58;;;;;;;22.02;10.43;;;14.50;99.90;;;;;;5042141;28;20091;-77
2023/10/01 06:39:27;;;;;;;17.27;9.80;;;14.50;99.90;;;;;;5042089;28;20611;-78
2023/10/01 06:41:53;;;;;;;20.45;10.70;;;14.60;99.90;;;;;;5043592;28;20045;-78
2023/10/01 06:44:22;;;;;;;17.70;11.43;;;14.60;99.90;;;;;;5047217;28;20353;-78
2023/10/01 06:46:51;;;;;;;20.30;11.35;;;14.60;99.90;;;;;;5045882;28;20050;-77
2023/10/01 06:49:18;;;;;;;18.40;10.82;;;14.60;99.90;;;;;;5045551;28;20116;-77
2023/10/01 06:51:44;;;;;;;18.92;10.55;;;14.60;99.90;;;;;;5040041;28;20128;-84
2023/10/01 06:54:11;;;;;;;17.00;9.18;;;14.60;99.90;;;;;;5033033;28;20103;-82
2023/10/01 06:56:43;;;;;;;17.42;10.40;;;14.60;99.90;;;;;;5045210;28;20048;-83
2023/10/01 06:59:28;;;;;;;18.35;11.27;;;14.70;99.90;;;;;;5044126;28;20052;-87
2023/10/01 07:01:56;;;;;;;18.98;9.77;;;14.70;99.90;;;;;;5048391;28;20049;-87
2023/10/01 07:04:30;;;;;;;18.73;10.80;;;14.70;99.90;;;;;;5044609;28;20051;-87
2023/10/01 07:06:57;;;;;;;16.95;10.20;;;14.70;99.90;;;;;;5046123;28;20493;-86
2023/10/01 07:09:27;;;;;;;16.88;9.95;;;14.80;99.90;;;;;;5042836;28;20045;-84
2023/10/01 07:12:01;;;;;;;24.77;10.98;;;14.80;99.90;;;;;;5047064;28;20071;-85
2023/10/01 07:14:38;;;;;;;18.92;10.32;;;14.80;99.90;;;;;;5041304;28;20041;-84
2023/10/01 07:17:08;;;;;;;20.73;10.18;;;14.80;99.90;;;;;;5042992;28;20056;-82
2023/10/01 07:19:35;;;;;;;17.45;8.80;;;14.80;99.90;;;;;;5044718;28;20137;-80
2023/10/01 07:22:06;;;;;;;21.25;9.98;;;14.80;99.90;;;;;;5040204;28;20045;-82
2023/10/01 07:24:33;;;;;;;18.38;9.13;;;14.80;99.90;;;;;;5040399;28;20052;-78
2023/10/01 07:27:03;;;;;;;19.50;9.57;;;14.80;99.90;;;;;;5045682;28;20061;-84
2023/10/01 07:29:31;;;;;;;21.15;10.10;;;14.80;99.90;;;;;;5051519;28;20048;-87
2023/10/01 07:32:00;;;;;;;18.65;9.23;;;14.90;99.90;;;;;;5045658;28;20057;-87
2023/10/01 07:34:26;;;;;;;18.27;9.02;;;14.90;99.90;;;;;;5045571;28;20048;-85
2023/10/01 07:36:54;;;;;;;23.25;9.07;;;14.90;99.90;;;;;;5052183;28;20041;-91
2023/10/01 07:39:21;;;;;;;19.25;8.45;;;14.90;99.90;;;;;;5033701;28;20044;-87
2023/10/01 07:41:48;;;;;;;15.55;8.45;;;14.90;99.90;;;;;;5046273;28;20042;-87
2023/10/01 07:44:15;;;;;;;18.60;8.02;;;15.00;99.90;;;;;;5033933;28;20053;-86
2023/10/01 07:46:42;;;;;;;20.75;8.23;;;15.10;99.90;;;;;;5037103;28;20045;-87
2023/10/01 07:49:11;;;;;;;17.10;8.77;;;15.10;99.90;;;;;;5041258;28;20041;-87
2023/10/01 07:51:38;;;;;;;17.00;8.75;;;15.10;99.90;;;;;;5054005;28;20083;-84
2023/10/01 07:54:11;;;;;;;20.65;8.98;;;15.10;99.90;;;;;;5031723;28;20180;-87
2023/10/01 07:56:48;;;;;;;18.40;7.88;;;15.20;99.90;;;;;;5047768;28;20101;-87
2023/10/01 07:59:28;;;;;;;20.35;9.00;;;15.20;99.90;;;;;;5033657;28;20049;-87
2023/10/01 08:02:09;;;;;;;21.35;8.43;;;15.20;99.90;;;;;;5042928;28;20102;-88
2023/10/01 08:07:17;;;;;;;20.05;9.30;;;15.20;99.90;;;;;;5041096;28;20057;-81
2023/10/01 08:10:04;;;;;;;17.83;8.55;;;15.20;99.90;;;;;;5051501;28;20045;-82
2023/10/01 08:13:04;;;;;;;18.45;7.68;;;15.20;99.90;;;;;;5035022;28;20100;-80
2023/10/01 08:15:29;;;;;;;17.45;8.57;;;15.20;99.90;;;;;;5049762;28;20096;-79
2023/10/01 08:20:58;;;;;;;18.25;8.20;;;15.20;99.90;;;;;;5050386;28;20124;-84
2023/10/01 08:23:45;;;;;;;18.27;8.85;;;15.20;99.90;;;;;;5050415;28;20048;-84
2023/10/01 08:28:59;;;;;;;17.35;8.15;;;15.20;99.90;;;;;;5045472;28;20050;-83
2023/10/01 08:34:22;;;;;;;17.73;8.68;;;15.30;99.90;;;;;;5048061;28;20120;-84
2023/10/01 08:36:55;;;;;;;16.80;7.72;;;15.40;99.90;;;;;;5052300;28;20037;-84
2023/10/01 08:39:48;;;;;;;17.33;7.60;;;15.50;99.90;;;;;;5051722;28;20084;-83
2023/10/01 08:42:17;;;;;;;18.10;8.43;;;15.50;99.90;;;;;;5039191;28;20042;-83
2023/10/01 08:44:50;;;;;;;17.60;8.18;;;15.60;99.90;;;;;;5044289;28;20049;-85
2023/10/01 08:47:21;;;;;;;19.85;8.13;;;15.70;99.90;;;;;;5050106;28;20394;-84
2023/10/01 08:49:52;;;;;;;15.93;7.63;;;15.70;99.90;;;;;;5031038;28;20068;-83
2023/10/01 08:52:25;;;;;;;15.32;8.55;;;15.80;99.90;;;;;;5042961;28;20049;-83
2023/10/01 08:54:55;;;;;;;17.98;8.80;;;15.90;99.90;;;;;;5047720;28;20043;-84
2023/10/01 08:57:36;;;;;;;19.33;8.02;;;15.90;99.90;;;;;;5045872;28;20459;-85
2023/10/01 09:00:20;;;;;;;16.90;7.53;;;16.00;99.90;;;;;;5046877;28;20106;-84
2023/10/01 09:02:55;;;;;;;18.52;7.50;;;16.10;99.90;;;;;;5049802;28;20567;-83
2023/10/01 09:05:23;;;;;;;13.88;7.72;;;16.20;99.90;;;;;;5052936;28;20040;-82
2023/10/01 09:10:39;;;;;;;18.50;7.65;;;16.40;99.90;;;;;;5033363;28;20441;-84
2023/10/01 09:13:08;;;;;;;14.48;6.63;;;16.60;99.90;;;;;;5044750;28;20177;-84
2023/10/01 09:15:43;;;;;;;13.38;7.05;;;16.70;99.90;;;;;;5043514;28;20084;-84
2023/10/01 09:18:10;;;;;;;14.77;6.85;;;16.80;99.90;;;;;;5049545;28;20415;-85
2023/10/01 09:21:06;;;;;;;19.10;7.75;;;16.90;99.90;;;;;;5041134;28;20057;-86
2023/10/01 09:26:42;;;;;;;16.13;7.47;;;17.20;99.90;;;;;;5053746;28;20469;-85
2023/10/01 09:29:21;;;;;;;14.57;6.50;;;17.40;99.90;;;;;;5047470;28;20098;-85
2023/10/01 09:31:52;;;;;;;18.25;6.55;;;17.60;99.90;;;;;;5048734;28;20053;-86
2023/10/01 09:34:31;;;;;;;14.77;6.75;;;17.70;99.90;;;;;;5048699;28;20079;-85
2023/10/01 09:37:04;;;;;;;16.02;6.32;;;17.90;99.90;;;;;;5045001;28;20041;-85
2023/10/01 09:39:38;;;;;;;16.90;6.45;;;18.00;99.90;;;;;;5042989;28;20037;-86
2023/10/01 09:42:24;;;;;;;19.63;7.35;;;18.10;99.90;;;;;;5042842;28;20084;-84
2023/10/01 09:44:53;;;;;;;13.48;6.45;;;18.20;99.90;;;;;;5039112;28;20041;-85
2023/10/01 09:47:24;;;;;;;18.00;7.35;;;18.20;99.90;;;;;;5043789;28;20052;-84
2023/10/01 09:49:54;;;;;;;13.82;6.35;;;18.30;99.90;;;;;;5043751;28;20041;-85
2023/10/01 09:52:31;;;;;;;15.98;6.80;;;18.30;99.90;;;;;;5045217;28;20429;-83
2023/10/01 09:55:09;;;;;;;14.65;6.43;;;18.40;99.90;;;;;;5047257;28;20045;-86
2023/10/01 09:57:37;;;;;;;14.45;6.50;;;18.40;99.90;;;;;;5043162;28;20090;-86
2023/10/01 10:00:17;;;;;;;15.90;7.13;;;18.60;99.90;;;;;;5046937;28;20049;-85
2023/10/01 10:02:51;;;;;;;21.45;7.25;;;18.60;99.90;;;;;;5048994;28;20124;-86
2023/10/01 10:05:28;;;;;;;15.52;7.07;;;18.60;99.90;;;;;;5042743;28;20037;-85
2023/10/01 10:08:13;;;;;;;20.02;6.75;;;18.60;99.90;;;;;;5040534;28;20057;-83
2023/10/01 10:10:48;;;;;;;18.70;7.28;;;18.60;99.90;;;;;;5038665;28;20053;-80
2023/10/01 10:13:37;;;;;;;18.17;7.38;;;18.60;99.90;;;;;;5031981;28;20474;-82
2023/10/01 10:19:12;;;;;;;14.32;6.15;;;18.60;99.90;;;;;;5035769;28;20061;-82
2023/10/01 10:24:46;;;;;;;18.70;7.35;;;18.60;99.90;;;;;;5051034;28;20044;-80
2023/10/01 10:27:35;;;;;;;16.85;6.47;;;18.70;99.90;;;;;;5046405;28;20054;-81
2023/10/01 10:30:01;;;;;;;16.65;6.47;;;18.90;99.90;;;;;;5028851;28;20135;-82
2023/10/01 10:32:27;;;;;;;15.07;7.00;;;19.00;99.90;;;;;;5051888;28;20129;-85
2023/10/01 10:35:05;;;;;;;17.38;6.57;;;19.00;99.90;;;;;;5040956;28;20046;-81
2023/10/01 10:37:37;;;;;;;15.90;6.50;;;19.20;99.90;;;;;;5043643;28;20041;-83
2023/10/01 10:40:13;;;;;;;15.43;6.75;;;19.30;99.90;;;;;;5015136;28;20052;-87
2023/10/01 10:42:46;;;;;;;16.38;6.20;;;19.40;99.90;;;;;;5049993;28;20447;-88
2023/10/01 10:45:21;;;;;;;16.85;6.63;;;19.40;99.90;;;;;;5047080;28;20071;-87
2023/10/01 10:48:04;;;;;;;20.77;7.07;;;19.40;99.90;;;;;;5041318;28;20541;-87
2023/10/01 10:50:48;;;;;;;15.80;6.97;;;19.40;99.90;;;;;;5041613;28;20043;-88
2023/10/01 10:53:21;;;;;;;18.25;6.97;;;19.40;99.90;;;;;;5051070;28;20055;-82
2023/10/01 10:55:53;;;;;;;17.80;6.35;;;19.40;99.90;;;;;;5053465;28;20175;-81
2023/10/01 10:58:24;;;;;;;20.55;6.78;;;19.30;99.90;;;;;;5051442;28;20502;-80
2023/10/01 11:00:52;;;;;;;15.77;7.00;;;19.40;99.90;;;;;;5049954;28;20041;-85
2023/10/01 11:03:40;;;;;;;14.13;6.47;;;19.30;99.90;;;;;;5054641;28;20049;-81
2023/10/01 11:06:42;;;;;;;12.95;6.22;;;19.40;99.90;;;;;;5055517;28;20049;-80
2023/10/01 11:09:26;;;;;;;18.67;6.63;;;19.40;99.90;;;;;;5049188;28;20049;-79
2023/10/01 11:12:05;;;;;;;;;;;19.40;99.90;;;;;;5042781;28;20120;-84
2023/10/01 11:14:30;;;;;;;15.25;6.65;;;19.50;99.90;;;;;;5048762;28;19956;-83
2023/10/01 11:16:56;;;;;;;16.27;6.57;;;19.50;99.90;;;;;;5048984;28;20083;-84
2023/10/01 11:19:28;;;;;;;16.65;7.05;;;19.60;99.90;;;;;;5054565;28;20427;-81
2023/10/01 11:22:00;;;;;;;15.27;7.38;;;19.70;99.90;;;;;;5054726;28;20049;-80
2023/10/01 11:24:30;;;;;;;15.25;6.50;;;19.70;99.90;;;;;;5052451;28;20436;-80
2023/10/01 11:27:20;;;;;;;16.08;6.85;;;19.80;99.90;;;;;;5050207;28;20041;-81
2023/10/01 11:30:13;;;;;;;14.93;6.15;;;19.80;99.90;;;;;;5052035;28;20102;-87
2023/10/01 11:33:12;;;;;;;21.63;7.20;;;19.80;99.90;;;;;;5049221;28;20056;-81
2023/10/01 11:35:40;;;;;;;16.17;6.68;;;19.80;99.90;;;;;;5020555;28;20046;-80
2023/10/01 11:38:09;;;;;;;15.65;6.60;;;19.80;99.90;;;;;;5049868;28;20507;-82
2023/10/01 11:43:32;;;;;;;18.63;7.07;;;19.70;99.90;;;;;;5049968;28;20048;-84
2023/10/01 11:46:24;;;;;;;15.32;6.60;;;19.80;99.90;;;;;;5039879;28;20041;-81
2023/10/01 11:49:02;;;;;;;15.07;6.22;;;19.90;99.90;;;;;;5044734;28;20412;-82
2023/10/01 11:51:45;;;;;;;16.30;6.78;;;19.90;99.90;;;;;;5034434;28;20053;-83
2023/10/01 11:54:25;;;;;;;17.58;6.93;;;19.90;99.90;;;;;;5034178;28;20111;-90
2023/10/01 11:57:07;;;;;;;17.05;7.38;;;20.00;99.90;;;;;;5034097;28;20478;-82
2023/10/01 11:59:41;;;;;;;19.13;7.13;;;20.00;99.90;;;;;;5037405;28;20094;-82
2023/10/01 12:02:20;;;;;;;17.13;6.93;;;20.10;99.90;;;;;;5053683;28;20048;-82
2023/10/01 12:04:56;;;;;;;14.80;6.53;;;20.10;99.90;;;;;;5053532;28;20041;-82
2023/10/01 12:07:32;;;;;;;15.55;6.72;;;20.10;99.90;;;;;;5051462;28;20044;-81
2023/10/01 12:09:59;;;;;;;20.13;6.95;;;20.20;99.90;;;;;;5053364;28;20055;-80
2023/10/01 12:12:36;;;;;;;17.35;7.13;;;20.20;99.90;;;;;;5034935;28;20543;-80
2023/10/01 12:17:47;;;;;;;23.08;7.25;;;20.30;99.90;;;;;;5048897;28;20084;-82
2023/10/01 12:20:22;;;;;;;18.42;6.88;;;20.30;99.90;;;;;;5050300;28;20169;-81
2023/10/01 12:23:04;;;;;;;13.73;6.72;;;20.30;99.90;;;;;;5052617;28;20484;-79
2023/10/01 12:25:47;;;;;;;17.88;7.13;;;20.30;99.90;;;;;;5051255;28;20057;-80
2023/10/01 12:28:29;;;;;;;16.27;6.70;;;20.30;99.90;;;;;;5051915;28;20045;-79
2023/10/01 12:31:08;;;;;;;18.30;7.78;;;20.40;99.90;;;;;;5051404;28;20124;-78
2023/10/01 12:33:38;;;;;;;17.00;6.93;;;20.40;99.90;;;;;;5053033;28;20041;-80
2023/10/01 12:41:48;;;;;;;16.75;7.05;;;20.60;99.90;;;;;;5049277;28;20085;-79
2023/10/01 12:44:34;;;;;;;15.43;6.55;;;20.70;99.90;;;;;;5035790;28;20044;-80
2023/10/01 12:47:02;;;;;;;16.30;7.00;;;20.80;99.90;;;;;;5016839;28;20045;-80
2023/10/01 12:49:35;;;;;;;18.08;6.95;;;20.90;99.90;;;;;;5032696;28;20128;-78
2023/10/01 12:52:04;;;;;;;18.50;7.03;;;21.00;99.90;;;;;;5030816;28;20380;-86
2023/10/01 12:54:36;;;;;;;18.00;7.03;;;21.00;99.90;;;;;;5028232;28;20404;-87
2023/10/01 12:57:09;;;;;;;16.02;6.60;;;21.10;99.90;;;;;;5043962;28;20045;-86
2023/10/01 12:59:39;;;;;;;16.15;7.30;;;21.10;99.90;;;;;;5048116;28;20049;-86
2023/10/01 13:02:28;;;;;;;15.75;7.43;;;21.10;99.90;;;;;;5047703;28;20110;-87
2023/10/01 13:05:23;;;;;;;13.55;6.60;;;21.10;99.90;;;;;;5050794;28;20049;-86
2023/10/01 13:07:50;;;;;;;15.70;7.43;;;21.20;99.90;;;;;;5030574;28;20425;-86
2023/10/01 13:10:18;;;;;;;15.65;7.03;;;21.20;99.90;;;;;;5052035;28;20049;-87
2023/10/01 13:12:57;;;;;;;14.90;7.22;;;21.30;99.90;;;;;;5047413;28;20057;-81
2023/10/01 13:15:40;;;;;;;17.67;7.68;;;21.40;99.90;;;;;;5040779;28;20099;-84
2023/10/01 13:18:17;;;;;;;17.52;7.85;;;21.50;99.90;;;;;;5015708;28;20158;-82
2023/10/01 13:23:42;;;;;;;15.63;7.68;;;21.60;99.90;;;;;;5040110;28;20412;-81
2023/10/01 13:26:24;;;;;;;15.23;7.28;;;21.60;99.90;;;;;;5039442;28;20045;-90
2023/10/01 13:28:51;;;;;;;18.42;7.70;;;21.70;99.90;;;;;;5024262;28;20045;-81
2023/10/01 14:09:51;;;;;;;16.35;7.72;;;21.70;99.90;;;;;;5032381;28;20053;-87
2023/10/01 14:15:23;;;;;;;18.13;7.55;;;21.90;99.90;;;;;;5032396;28;20053;-87
2023/10/01 14:17:56;;;;;;;16.70;7.95;;;21.90;99.90;;;;;;5032169;28;20421;-86
2023/10/01 14:23:10;;;;;;;15.88;7.93;;;21.90;99.90;;;;;;5032059;28;20049;-86
2023/10/01 14:25:57;;;;;;;17.52;7.57;;;21.80;99.90;;;;;;5032115;28;20053;-87
2023/10/01 14:28:24;;;;;;;16.40;7.30;;;21.80;99.90;;;;;;5032248;28;20103;-88
2023/10/01 14:31:10;;;;;;;17.95;7.78;;;21.80;99.90;;;;;;5031832;28;20448;-85
2023/10/01 14:33:39;;;;;;;16.77;8.05;;;21.80;99.90;;;;;;5032548;28;20045;-88
2023/10/01 14:36:05;;;;;;;19.33;7.70;;;21.70;99.90;;;;;;5032320;28;20053;-88
2023/10/01 14:38:37;;;;;;;20.77;8.63;;;21.60;99.90;;;;;;5032371;28;20045;-87
2023/10/01 14:41:09;;;;;;;17.23;7.38;;;21.60;99.90;;;;;;5032226;28;20510;-87
2023/10/01 14:43:48;;;;;;;18.77;8.20;;;21.60;99.90;;;;;;5031907;28;20049;-88
2023/10/01 14:46:18;;;;;;;16.52;7.65;;;21.50;99.90;;;;;;5032038;28;20045;-86
2023/10/01 14:48:47;;;;;;;13.88;7.13;;;21.50;99.90;;;;;;5032661;28;20140;-85